Centerville, Washington
Current Conditions -  °F | °C
As of 11:20 PM on Thursday 30 Oct 2014 (Local Time) from KDLS Reporting Station
Light Rain Light Rain  
Wind Chill: 54°   Ceiling: 2200
Heat Index: 54°   Visibility: 3mi
Dew Point: 53°   Wind: 6mph
Humidity: 97%   Direction: 130°SE
Pressure: 29.82"   Gusts: NA
Location:  45.75°N, 120.91°W
Report Text: KDLS 310620Z AUTO 13005KT 3SM -RA BR FEW013 BKN022 OVC085 12/12 A2982 RMK AO2 P0002 T01220117
Loading
Personal Weather Stations






























Interactive Weather Map
Tropical Storm Tracking
New forecast layout! Learn more

10-Day Weather Forecast

Advertisements
Track Severe Weather on mobile